Time;durP1;ratioP1;P1;durP2;ratioP2;P2;SDS_P1;SDS_P2;PMS_P1;PMS_P2;Temp;Humidity;BMP_temperature;BMP_pressure;BME280_temperature;BME280_humidity;BME280_pressure;Samples;Min_cycle;Max_cycle;Signal;HPM_P1;HPM_P2
2023/08/06 00:00:03;;;;;;;3.85;2.20;;;;;;;16.78;100.00;100986.47;5106437;28;20028;-76
2023/08/06 00:02:28;;;;;;;6.72;2.20;;;;;;;16.78;100.00;100989.19;5104929;28;20032;-76
2023/08/06 00:04:53;;;;;;;3.67;2.00;;;;;;;16.58;100.00;100972.38;5103997;28;20032;-76
2023/08/06 00:07:19;;;;;;;4.88;1.98;;;;;;;16.68;100.00;100994.34;5103400;28;20032;-77
2023/08/06 00:09:44;;;;;;;9.25;2.40;;;;;;;16.32;100.00;100933.72;5088078;28;20051;-76
2023/08/06 00:12:10;;;;;;;5.55;2.20;;;;;;;16.66;100.00;100977.47;5121242;28;20050;-77
2023/08/06 00:14:35;;;;;;;6.55;2.13;;;;;;;16.33;100.00;100929.97;5104395;28;20579;-76
2023/08/06 00:17:00;;;;;;;4.47;2.10;;;;;;;16.61;100.00;100991.75;5121904;28;20072;-76
2023/08/06 00:19:26;;;;;;;5.05;2.30;;;;;;;16.59;100.00;100987.63;5121080;28;20031;-76
2023/08/06 00:21:51;;;;;;;5.13;1.77;;;;;;;16.58;100.00;100985.97;5121860;28;20028;-77
2023/08/06 00:24:16;;;;;;;3.25;2.00;;;;;;;16.57;100.00;100977.00;5121943;28;20035;-76
2023/08/06 00:26:42;;;;;;;4.30;1.98;;;;;;;16.53;100.00;100972.28;5104241;28;20032;-76
2023/08/06 00:29:07;;;;;;;7.07;2.00;;;;;;;16.49;100.00;100971.91;5104524;28;20040;-76
2023/08/06 00:31:32;;;;;;;5.40;2.65;;;;;;;16.47;100.00;100976.75;5107248;28;20096;-77
2023/08/06 00:33:58;;;;;;;3.25;2.17;;;;;;;16.51;100.00;100971.66;5104263;28;20028;-76
2023/08/06 00:36:23;;;;;;;6.18;2.20;;;;;;;16.50;100.00;100970.03;5105100;28;20065;-77
2023/08/06 00:38:48;;;;;;;3.63;1.90;;;;;;;16.47;100.00;100973.22;5104846;28;20085;-77
2023/08/06 00:41:14;;;;;;;4.25;1.88;;;;;;;16.26;100.00;100929.25;5122549;28;20379;-77
2023/08/06 00:43:40;;;;;;;8.50;2.38;;;;;;;16.44;100.00;100969.06;5106414;28;20054;-76
2023/08/06 00:46:05;;;;;;;3.80;2.05;;;;;;;16.41;100.00;100969.53;5121867;28;20040;-76
2023/08/06 00:48:31;;;;;;;5.70;2.55;;;;;;;16.22;100.00;100936.19;5106142;28;20032;-77
2023/08/06 00:50:56;;;;;;;2.53;2.05;;;;;;;16.36;100.00;100964.00;5108367;28;20665;-76
2023/08/06 00:53:22;;;;;;;4.38;2.20;;;;;;;16.39;100.00;100956.19;5108090;28;20031;-76
2023/08/06 00:55:48;;;;;;;5.70;2.15;;;;;;;16.40;100.00;100955.13;5109632;28;20032;-76
2023/08/06 00:58:15;;;;;;;4.50;2.13;;;;;;;16.40;100.00;100963.28;5124783;28;20106;-77
2023/08/06 01:00:41;;;;;;;6.63;2.25;;;;;;;16.42;100.00;100953.00;5117377;28;20028;-76
2023/08/06 01:03:06;;;;;;;6.22;2.28;;;;;;;16.46;100.00;100945.22;5115336;28;20331;-76
2023/08/06 01:05:32;;;;;;;4.63;2.00;;;;;;;16.36;100.00;100934.13;5109622;28;20070;-76
2023/08/06 01:08:30;;;;;;;7.10;2.47;;;;;;;16.41;100.00;100953.22;5110416;28;20525;-76
2023/08/06 01:11:04;;;;;;;7.70;2.15;;;;;;;16.26;100.00;100939.25;5110664;28;20032;-76
2023/08/06 01:13:37;;;;;;;3.67;2.03;;;;;;;16.39;100.00;100961.63;5109567;28;20024;-76
2023/08/06 01:16:05;;;;;;;3.50;2.30;;;;;;;16.34;100.00;100947.91;5108949;28;20024;-76
2023/08/06 01:18:30;;;;;;;5.53;2.10;;;;;;;16.30;100.00;100952.16;5109647;28;20024;-76
2023/08/06 01:20:56;;;;;;;3.35;1.95;;;;;;;16.24;100.00;100947.66;5108219;28;20077;-76
2023/08/06 01:23:22;;;;;;;5.28;2.10;;;;;;;16.02;100.00;100922.09;5126699;28;20036;-77
2023/08/06 01:25:47;;;;;;;3.65;2.33;;;;;;;16.14;100.00;100944.69;5109927;28;20123;-76
2023/08/06 01:28:27;;;;;;;6.70;2.35;;;;;;;16.16;100.00;100939.88;5109082;28;20483;-77
2023/08/06 01:30:56;;;;;;;5.00;2.50;;;;;;;15.96;100.00;100916.56;5110024;28;20028;-76
2023/08/06 01:33:22;;;;;;;4.35;2.15;;;;;;;15.86;100.00;100912.72;5109698;28;20024;-77
2023/08/06 01:35:50;;;;;;;3.70;2.22;;;;;;;15.80;100.00;100898.22;5110654;28;20096;-77
2023/08/06 01:38:15;;;;;;;4.55;2.25;;;;;;;15.94;100.00;100915.13;5108760;28;20499;-76
2023/08/06 01:40:41;;;;;;;5.65;2.20;;;;;;;16.07;100.00;100941.25;5107041;28;20046;-77
2023/08/06 01:43:06;;;;;;;4.80;2.03;;;;;;;16.04;100.00;100939.81;5105119;28;20039;-76
2023/08/06 01:45:32;;;;;;;5.78;2.58;;;;;;;16.05;100.00;100943.34;5110073;28;20111;-76
2023/08/06 01:47:58;;;;;;;10.75;2.47;;;;;;;16.01;100.00;100931.31;5127418;28;20598;-76
2023/08/06 01:50:23;;;;;;;6.05;2.40;;;;;;;15.90;100.00;100931.06;5127268;28;20055;-76
2023/08/06 01:52:49;;;;;;;5.18;2.60;;;;;;;16.04;100.00;100945.25;5109086;28;20093;-76
2023/08/06 01:55:14;;;;;;;6.22;2.40;;;;;;;16.06;100.00;100950.44;5092042;28;20236;-75
2023/08/06 01:57:40;;;;;;;5.03;2.05;;;;;;;16.07;100.00;100947.50;5109334;28;20111;-77
2023/08/06 02:00:06;;;;;;;5.25;2.20;;;;;;;16.02;100.00;100952.78;5109463;28;20359;-77
2023/08/06 02:02:31;;;;;;;4.32;2.10;;;;;;;15.97;100.00;100945.34;5109314;28;20043;-76
2023/08/06 02:04:58;;;;;;;5.15;2.30;;;;;;;15.91;100.00;100940.84;5109364;28;20031;-77
2023/08/06 02:07:23;;;;;;;6.47;2.20;;;;;;;15.82;100.00;100920.50;5108867;28;20035;-76
2023/08/06 02:09:48;;;;;;;4.80;2.17;;;;;;;15.97;100.00;100950.78;5109296;28;20061;-76
2023/08/06 02:12:14;;;;;;;6.45;2.10;;;;;;;15.86;100.00;100924.44;5108542;28;20038;-77
2023/08/06 02:14:39;;;;;;;9.82;2.28;;;;;;;15.97;100.00;100948.06;5108638;28;20426;-76
2023/08/06 02:17:05;;;;;;;7.53;2.33;;;;;;;15.81;100.00;100939.75;5108037;28;20032;-76
2023/08/06 02:19:30;;;;;;;5.65;2.17;;;;;;;15.88;100.00;100949.44;5108430;28;20039;-77
2023/08/06 02:21:56;;;;;;;3.42;2.20;;;;;;;15.84;100.00;100950.16;5125819;28;20087;-76
2023/08/06 02:24:21;;;;;;;6.22;2.40;;;;;;;15.82;100.00;100955.78;5107890;28;20038;-77
2023/08/06 02:26:49;;;;;;;5.63;2.28;;;;;;;15.80;100.00;100960.63;5106983;28;20028;-77
2023/08/06 02:29:14;;;;;;;3.95;2.22;;;;;;;15.81;100.00;100973.13;5106277;28;20399;-77
2023/08/06 02:31:40;;;;;;;5.57;2.13;;;;;;;15.83;100.00;100975.63;5100400;28;20028;-77
2023/08/06 02:34:05;;;;;;;4.95;2.38;;;;;;;15.74;100.00;100964.25;5102871;28;20032;-76
2023/08/06 02:36:31;;;;;;;8.50;2.13;;;;;;;15.86;100.00;100975.16;5107491;28;20039;-76
2023/08/06 02:38:56;;;;;;;4.82;2.30;;;;;;;15.63;100.00;100943.28;5108358;28;20044;-77
2023/08/06 02:41:22;;;;;;;4.70;1.98;;;;;;;15.62;100.00;100949.78;5125229;28;20024;-76
2023/08/06 02:43:47;;;;;;;3.33;2.05;;;;;;;15.74;100.00;100975.94;5125036;28;20052;-77
2023/08/06 02:46:12;;;;;;;9.77;2.50;;;;;;;15.71;100.00;100983.72;5107819;28;20028;-77
2023/08/06 02:48:38;;;;;;;5.38;2.10;;;;;;;15.64;100.00;100986.47;5123900;28;20032;-77
2023/08/06 02:51:03;;;;;;;4.53;2.10;;;;;;;15.51;100.00;100975.78;5106916;28;20044;-77
2023/08/06 02:53:29;;;;;;;3.28;2.03;;;;;;;15.59;100.00;100989.03;5125505;28;20043;-76
2023/08/06 02:55:55;;;;;;;6.30;2.05;;;;;;;15.57;100.00;100983.03;5107731;28;20024;-77
2023/08/06 02:58:22;;;;;;;4.28;2.40;;;;;;;15.44;100.00;100962.31;5108654;28;20012;-76
2023/08/06 03:01:07;;;;;;;8.02;1.92;;;;;;;15.48;100.00;100968.94;5109446;28;20024;-77
2023/08/06 03:03:33;;;;;;;6.10;2.20;;;;;;;15.53;100.00;100973.69;5105415;28;20115;-77
2023/08/06 03:05:59;;;;;;;4.95;1.92;;;;;;;15.52;100.00;100983.69;5103236;28;20036;-77
2023/08/06 03:08:25;;;;;;;4.13;1.85;;;;;;;15.53;100.00;100987.25;5103626;28;20031;-76
2023/08/06 03:10:51;;;;;;;3.30;2.00;;;;;;;15.54;100.00;100988.91;5109359;28;20071;-77
2023/08/06 03:13:17;;;;;;;4.57;2.00;;;;;;;15.56;100.00;100991.38;5107480;28;20056;-77
2023/08/06 03:15:43;;;;;;;5.75;2.53;;;;;;;15.57;100.00;100995.75;5108311;28;20028;-77
2023/08/06 03:18:09;;;;;;;6.35;2.17;;;;;;;15.50;100.00;100983.09;5111029;28;20092;-77
2023/08/06 03:20:34;;;;;;;4.07;1.95;;;;;;;15.34;100.00;100959.31;5109851;28;20024;-77
2023/08/06 03:22:59;;;;;;;4.88;1.85;;;;;;;15.47;100.00;100993.56;5126682;28;20028;-76
2023/08/06 03:25:25;;;;;;;6.20;2.30;;;;;;;15.40;100.00;100980.09;5092784;28;20020;-77
2023/08/06 03:27:50;;;;;;;8.15;2.25;;;;;;;15.39;100.00;100977.59;5106210;28;20155;-77
2023/08/06 03:30:16;;;;;;;4.40;2.15;;;;;;;15.44;100.00;100989.44;5103075;28;20035;-77
2023/08/06 03:32:41;;;;;;;6.60;1.95;;;;;;;15.42;100.00;100983.38;5098712;28;20032;-77
2023/08/06 03:35:07;;;;;;;6.32;2.28;;;;;;;15.34;100.00;100970.16;5108276;28;20101;-76
2023/08/06 03:37:34;;;;;;;3.60;2.03;;;;;;;15.46;100.00;100987.34;5109923;28;20036;-77
2023/08/06 03:39:59;;;;;;;5.05;2.13;;;;;;;15.44;100.00;100988.59;5091311;28;20020;-77
2023/08/06 03:42:25;;;;;;;4.22;1.88;;;;;;;15.48;100.00;100987.91;5108449;28;20177;-77
2023/08/06 03:44:50;;;;;;;4.35;2.03;;;;;;;15.44;100.00;100975.03;5107911;28;20028;-77
2023/08/06 03:47:16;;;;;;;5.88;2.10;;;;;;;15.38;100.00;100974.06;5091116;28;20040;-77
2023/08/06 03:49:41;;;;;;;6.10;2.10;;;;;;;15.64;100.00;100993.78;5107655;28;20028;-77
2023/08/06 03:52:07;;;;;;;5.45;1.95;;;;;;;15.77;100.00;101000.97;5105800;28;20052;-77
2023/08/06 03:54:32;;;;;;;7.20;2.30;;;;;;;15.94;100.00;100994.66;5106211;28;20039;-77
2023/08/06 03:56:59;;;;;;;6.35;2.60;;;;;;;15.76;100.00;100948.59;5106269;28;20055;-76
2023/08/06 03:59:24;;;;;;;3.95;2.00;;;;;;;16.17;100.00;100991.19;5104332;28;20032;-77
2023/08/06 04:01:50;;;;;;;4.10;2.15;;;;;;;16.54;100.00;100987.50;5089062;28;20120;-77
2023/08/06 04:04:15;;;;;;;5.70;1.90;;;;;;;16.61;100.00;100990.94;5106383;28;20529;-77
2023/08/06 04:06:41;;;;;;;5.63;1.85;;;;;;;16.74;100.00;100987.16;5107101;28;20028;-77
2023/08/06 04:09:06;;;;;;;5.45;1.88;;;;;;;16.55;100.00;100946.50;5107516;28;20054;-77
2023/08/06 04:11:31;;;;;;;5.13;2.08;;;;;;;16.99;100.00;100978.81;5106000;28;20028;-77
2023/08/06 04:13:57;;;;;;;4.65;2.00;;;;;;;17.53;96.99;100976.72;5116754;28;20032;-77
2023/08/06 04:16:22;;;;;;;3.20;1.75;;;;;;;17.87;95.00;100974.13;5101968;28;20039;-76
2023/08/06 04:18:47;;;;;;;2.50;1.52;;;;;;;18.16;92.93;100974.94;5103694;28;20043;-77
2023/08/06 04:21:13;;;;;;;4.32;1.80;;;;;;;18.12;93.20;100965.63;5087765;28;20035;-77
2023/08/06 04:23:38;;;;;;;3.58;1.90;;;;;;;18.18;92.96;100968.19;5088294;28;20043;-77
2023/08/06 04:26:04;;;;;;;6.85;2.05;;;;;;;18.43;91.82;100973.22;5108080;28;20035;-77
2023/08/06 04:28:29;;;;;;;3.08;1.55;;;;;;;18.58;91.22;100964.50;5124228;28;20043;-77
2023/08/06 04:30:55;;;;;;;2.78;1.70;;;;;;;18.55;90.95;100963.06;5107765;28;20024;-76
2023/08/06 04:33:20;;;;;;;3.85;1.67;;;;;;;18.68;90.28;100961.91;5122807;28;20505;-76
2023/08/06 04:35:46;;;;;;;4.55;1.45;;;;;;;18.77;89.88;100965.06;5126305;28;20036;-76
2023/08/06 04:38:11;;;;;;;4.32;1.65;;;;;;;19.19;87.76;100962.66;5110154;28;20032;-76
2023/08/06 04:40:37;;;;;;;4.65;1.73;;;;;;;19.80;84.56;100964.50;5109353;28;20039;-76
2023/08/06 04:43:02;;;;;;;6.57;1.63;;;;;;;19.96;83.19;100966.31;5107990;28;20107;-77
2023/08/06 04:45:28;;;;;;;3.13;1.25;;;;;;;20.41;80.68;100951.44;5107501;28;20092;-76
2023/08/06 04:47:53;;;;;;;4.63;1.80;;;;;;;20.75;78.76;100962.94;5109185;28;20036;-76
2023/08/06 04:50:20;;;;;;;3.60;1.60;;;;;;;20.44;80.18;100964.59;5090172;28;20063;-76
2023/08/06 04:52:46;;;;;;;3.35;1.33;;;;;;;19.77;82.20;100924.06;5089943;28;20093;-76
2023/08/06 04:55:11;;;;;;;4.88;1.85;;;;;;;20.02;82.05;100962.56;5109042;28;20027;-76
2023/08/06 04:57:36;;;;;;;3.22;1.50;;;;;;;20.09;81.10;100957.72;5118807;28;20501;-76
2023/08/06 05:00:02;;;;;;;2.35;1.40;;;;;;;20.52;78.79;100958.66;5103918;28;20028;-76
2023/08/06 05:02:28;;;;;;;2.35;1.38;;;;;;;20.55;78.19;100952.66;5105878;28;20062;-77
2023/08/06 05:04:53;;;;;;;2.80;1.15;;;;;;;20.69;77.46;100953.03;5104592;28;20066;-77
2023/08/06 05:07:18;;;;;;;5.13;1.20;;;;;;;20.95;75.89;100947.72;5106399;28;20389;-76
2023/08/06 05:09:44;;;;;;;4.68;1.30;;;;;;;20.77;76.71;100954.47;5122655;28;20057;-77
2023/08/06 05:12:09;;;;;;;2.42;1.27;;;;;;;20.96;76.40;100955.69;5107048;28;20419;-76
2023/08/06 05:14:34;;;;;;;2.70;1.30;;;;;;;21.08;76.11;100950.00;5105577;28;20394;-76
2023/08/06 05:17:02;;;;;;;3.38;1.20;;;;;;;20.37;78.59;100951.13;5106657;28;20085;-77
2023/08/06 05:19:27;;;;;;;6.22;1.30;;;;;;;20.13;80.24;100938.88;5122144;28;20054;-76
2023/08/06 05:21:52;;;;;;;3.80;1.27;;;;;;;20.69;78.36;100941.28;5105696;28;20025;-76
2023/08/06 05:24:18;;;;;;;2.22;1.27;;;;;;;20.54;78.51;100944.75;5087619;28;20032;-76
2023/08/06 05:26:46;;;;;;;2.20;1.38;;;;;;;20.50;78.63;100938.94;5106601;28;20091;-77
2023/08/06 05:29:11;;;;;;;4.03;1.30;;;;;;;20.36;80.00;100940.44;5121961;28;20043;-76
2023/08/06 05:31:37;;;;;;;3.33;1.40;;;;;;;20.30;80.28;100928.69;5106627;28;20402;-76
2023/08/06 05:34:02;;;;;;;3.50;1.10;;;;;;;20.26;80.85;100932.16;5114015;28;20081;-76
2023/08/06 05:36:28;;;;;;;2.35;1.20;;;;;;;20.12;81.96;100935.34;5102342;28;20055;-77
2023/08/06 05:38:53;;;;;;;2.17;1.05;;;;;;;19.89;83.56;100927.47;5090604;28;20040;-78
2023/08/06 05:41:19;;;;;;;3.50;1.25;;;;;;;19.71;84.51;100923.22;5102981;28;20036;-77
2023/08/06 05:43:45;;;;;;;4.88;1.25;;;;;;;19.87;84.49;100925.00;5085184;28;20044;-76
2023/08/06 05:46:10;;;;;;;4.22;1.20;;;;;;;19.68;85.37;100927.25;5103266;28;20059;-76
2023/08/06 05:48:36;;;;;;;1.75;1.15;;;;;;;19.80;85.49;100934.47;5120657;28;20023;-77
2023/08/06 05:51:01;;;;;;;2.08;0.98;;;;;;;19.81;84.94;100920.56;5103338;28;20052;-77
2023/08/06 05:53:26;;;;;;;5.60;1.30;;;;;;;19.69;85.26;100928.09;5103247;28;20024;-77
2023/08/06 05:55:52;;;;;;;3.00;1.10;;;;;;;19.93;84.86;100934.06;5103023;28;20032;-76
2023/08/06 05:58:19;;;;;;;2.33;1.10;;;;;;;19.77;84.35;100888.56;5085606;28;20038;-77
2023/08/06 06:00:45;;;;;;;4.55;1.55;;;;;;;19.60;85.77;100924.97;5102165;28;20410;-76
2023/08/06 06:03:10;;;;;;;2.95;1.20;;;;;;;19.56;85.70;100928.47;5085179;28;20486;-77
2023/08/06 06:05:38;;;;;;;3.78;1.00;;;;;;;19.53;85.57;100918.88;5101912;28;20039;-76
2023/08/06 06:08:04;;;;;;;3.65;0.90;;;;;;;19.75;85.09;100923.50;5102397;28;20020;-76
2023/08/06 06:10:29;;;;;;;2.78;1.08;;;;;;;19.94;84.28;100925.63;5119317;28;20038;-77
2023/08/06 06:12:55;;;;;;;2.67;1.00;;;;;;;19.70;85.65;100936.03;5102223;28;20028;-76
2023/08/06 06:15:21;;;;;;;4.38;1.20;;;;;;;19.63;86.33;100929.94;5101552;28;20095;-77
2023/08/06 06:17:46;;;;;;;3.55;1.10;;;;;;;19.68;86.06;100929.19;5103571;28;20028;-77
2023/08/06 06:20:12;;;;;;;3.45;1.10;;;;;;;19.74;85.59;100917.22;5118904;28;20486;-76
2023/08/06 06:22:37;;;;;;;6.00;1.17;;;;;;;19.78;85.38;100909.34;5102020;28;20074;-76
2023/08/06 06:25:03;;;;;;;1.85;1.10;;;;;;;19.64;85.96;100901.56;5102241;28;20054;-77
2023/08/06 06:27:29;;;;;;;4.45;1.10;;;;;;;19.59;85.89;100900.66;5102310;28;20415;-77
2023/08/06 06:29:54;;;;;;;1.98;1.00;;;;;;;19.66;86.32;100904.84;5101640;28;20131;-77
2023/08/06 06:32:21;;;;;;;3.08;0.90;;;;;;;19.66;86.35;100907.56;5101268;28;20055;-76
2023/08/06 06:34:46;;;;;;;2.45;1.10;;;;;;;19.81;86.17;100909.66;5118203;28;20120;-76
2023/08/06 06:37:11;;;;;;;2.80;0.98;;;;;;;19.70;86.10;100892.34;5100583;28;20059;-76
2023/08/06 06:39:37;;;;;;;3.55;1.10;;;;;;;20.07;85.79;100909.91;5100695;28;20123;-76
2023/08/06 06:42:02;;;;;;;5.40;1.42;;;;;;;20.10;85.64;100912.94;5100009;28;20047;-77
2023/08/06 06:44:28;;;;;;;4.28;1.25;;;;;;;20.30;85.13;100914.19;5098979;28;20059;-76
2023/08/06 06:46:53;;;;;;;2.67;1.05;;;;;;;20.26;84.58;100897.47;5113393;28;20080;-77
2023/08/06 06:49:19;;;;;;;3.38;1.40;;;;;;;20.47;84.15;100905.84;5097852;28;20508;-76
2023/08/06 06:51:44;;;;;;;1.90;1.08;;;;;;;20.54;83.98;100901.00;5113645;28;20139;-77
2023/08/06 06:54:10;;;;;;;8.30;1.38;;;;;;;20.61;83.45;100893.38;5096821;28;20024;-76
2023/08/06 06:56:35;;;;;;;3.22;1.10;;;;;;;20.33;84.27;100905.44;5097030;28;20020;-76
2023/08/06 06:59:00;;;;;;;2.70;1.05;;;;;;;20.49;83.65;100889.97;5114424;28;20047;-77
2023/08/06 07:01:26;;;;;;;3.15;1.05;;;;;;;20.54;83.47;100912.75;5080462;28;20031;-77
2023/08/06 07:03:51;;;;;;;3.22;1.50;;;;;;;20.43;83.54;100908.28;5114048;28;20342;-77
2023/08/06 07:06:18;;;;;;;3.75;1.10;;;;;;;20.68;82.18;100893.16;5113012;28;20071;-76
2023/08/06 07:08:44;;;;;;;4.90;1.20;;;;;;;20.71;81.64;100909.84;5097795;28;20035;-76
2023/08/06 07:11:09;;;;;;;1.83;0.90;;;;;;;20.88;80.83;100888.63;5080441;28;20024;-76
2023/08/06 07:13:35;;;;;;;3.88;1.27;;;;;;;20.64;80.43;100892.88;5098370;28;20032;-76
2023/08/06 07:16:00;;;;;;;3.95;0.98;;;;;;;20.08;82.52;100892.41;5097425;28;20035;-76
2023/08/06 07:18:25;;;;;;;3.45;1.10;;;;;;;20.27;81.54;100896.41;5100100;28;20042;-77
2023/08/06 07:20:53;;;;;;;2.42;0.90;;;;;;;20.23;81.82;100894.44;5080823;28;20036;-76
2023/08/06 07:23:21;;;;;;;5.05;0.95;;;;;;;20.19;80.64;100872.28;5099907;28;20035;-76
2023/08/06 07:25:46;;;;;;;3.85;0.80;;;;;;;20.27;80.44;100868.25;5115746;28;20123;-77
2023/08/06 07:28:13;;;;;;;4.68;1.00;;;;;;;20.46;80.65;100876.84;5115551;28;20064;-76
2023/08/06 07:30:39;;;;;;;4.82;1.05;;;;;;;20.37;79.49;100844.56;5080730;28;20085;-77
2023/08/06 07:33:05;;;;;;;2.38;0.82;;;;;;;20.51;78.80;100869.53;5097905;28;20517;-77
2023/08/06 07:35:30;;;;;;;2.47;1.08;;;;;;;20.61;78.67;100871.50;5097880;28;20035;-76
2023/08/06 07:37:55;;;;;;;3.38;1.00;;;;;;;21.06;76.85;100875.59;5098490;28;20115;-77
2023/08/06 07:40:21;;;;;;;1.67;0.90;;;;;;;20.99;77.25;100864.88;5097776;28;20499;-77
2023/08/06 07:42:46;;;;;;;5.82;1.08;;;;;;;20.83;77.34;100879.59;5102046;28;20040;-77
2023/08/06 07:45:12;;;;;;;5.38;0.95;;;;;;;20.65;77.33;100880.84;5116505;28;20028;-77
2023/08/06 07:47:37;;;;;;;2.28;0.85;;;;;;;20.64;76.94;100865.53;5098323;28;20510;-77
2023/08/06 07:50:03;;;;;;;1.95;1.00;;;;;;;20.65;76.30;100834.34;5114751;28;20422;-77
2023/08/06 07:52:28;;;;;;;1.45;0.75;;;;;;;21.09;75.64;100875.88;5098553;28;20032;-76
2023/08/06 07:54:53;;;;;;;2.67;0.80;;;;;;;21.18;74.62;100867.94;5097880;28;20123;-77
2023/08/06 07:57:19;;;;;;;2.47;0.90;;;;;;;21.43;73.83;100845.34;5097766;28;20039;-77
2023/08/06 07:59:44;;;;;;;2.03;0.88;;;;;;;21.23;72.81;100853.47;5097326;28;20056;-77
2023/08/06 08:02:09;;;;;;;3.70;1.05;;;;;;;21.20;72.88;100851.28;5096659;28;20428;-77
2023/08/06 08:04:35;;;;;;;3.05;0.80;;;;;;;21.51;72.53;100861.22;5114681;28;20036;-76
2023/08/06 08:07:00;;;;;;;5.55;1.08;;;;;;;21.83;71.76;100859.38;5097470;28;20035;-76
2023/08/06 08:09:25;;;;;;;3.58;1.00;;;;;;;22.17;71.43;100860.50;5097606;28;20028;-77
2023/08/06 08:11:52;;;;;;;3.55;1.00;;;;;;;22.29;70.71;100871.19;5097986;28;20031;-77
2023/08/06 08:14:17;;;;;;;2.63;1.00;;;;;;;22.04;69.52;100864.56;5113313;28;20036;-77
2023/08/06 08:16:43;;;;;;;3.33;0.90;;;;;;;21.94;69.27;100870.06;5078481;28;20095;-77
2023/08/06 08:19:08;;;;;;;4.55;0.90;;;;;;;21.91;68.83;100873.34;5079285;28;20032;-77
2023/08/06 08:21:35;;;;;;;2.67;0.95;;;;;;;22.04;67.89;100871.97;5095991;28;20016;-77
2023/08/06 08:24:01;;;;;;;1.40;0.77;;;;;;;22.30;67.44;100874.75;5094615;28;20032;-77
2023/08/06 08:26:27;;;;;;;5.45;0.98;;;;;;;21.85;66.92;100876.34;5095161;28;20027;-77
2023/08/06 08:28:53;;;;;;;5.10;0.88;;;;;;;21.76;66.92;100878.81;5112059;28;20024;-76
2023/08/06 08:31:19;;;;;;;3.42;0.90;;;;;;;21.96;66.45;100872.53;5095085;28;20028;-76
2023/08/06 08:33:44;;;;;;;4.38;0.93;;;;;;;21.78;67.43;100861.00;5095104;28;20039;-77
2023/08/06 08:36:09;;;;;;;2.53;1.02;;;;;;;21.75;66.46;100866.19;5112774;28;20081;-77
2023/08/06 08:38:35;;;;;;;1.77;0.70;;;;;;;22.00;65.86;100859.91;5096609;28;20036;-77
2023/08/06 08:41:00;;;;;;;2.45;0.90;;;;;;;21.92;64.81;100857.72;5096549;28;20088;-77
2023/08/06 08:43:27;;;;;;;2.65;0.80;;;;;;;21.88;64.89;100837.44;5112226;28;20425;-77
2023/08/06 08:45:58;;;;;;;2.67;0.93;;;;;;;22.12;64.43;100843.19;5095699;28;20028;-77
2023/08/06 08:48:24;;;;;;;2.97;1.00;;;;;;;22.23;64.36;100850.34;5096132;28;20547;-77
2023/08/06 08:50:50;;;;;;;3.90;0.93;;;;;;;21.86;63.37;100845.94;5113378;28;20052;-77
2023/08/06 08:53:16;;;;;;;3.65;1.00;;;;;;;21.79;62.95;100832.53;5096329;28;20039;-77
2023/08/06 08:55:44;;;;;;;3.63;0.95;;;;;;;21.99;62.59;100853.63;5096861;28;20146;-76
2023/08/06 08:58:10;;;;;;;2.40;0.90;;;;;;;21.78;63.84;100841.81;5095573;28;20032;-76
2023/08/06 09:00:36;;;;;;;3.72;0.85;;;;;;;22.02;63.14;100855.00;5096391;28;20031;-76
2023/08/06 09:03:05;;;;;;;3.95;0.93;;;;;;;21.94;63.73;100853.59;5096138;28;20058;-77
2023/08/06 09:05:32;;;;;;;2.88;1.00;;;;;;;22.20;63.64;100861.88;5094336;28;20031;-77
2023/08/06 09:08:03;;;;;;;1.83;0.90;;;;;;;22.11;63.49;100849.78;5094694;28;20391;-77
2023/08/06 09:10:28;;;;;;;2.97;0.90;;;;;;;22.14;62.98;100828.13;5099267;28;20051;-77
2023/08/06 09:12:55;;;;;;;3.97;0.80;;;;;;;22.32;62.30;100845.09;5098317;28;20024;-77
2023/08/06 09:15:24;;;;;;;3.80;0.90;;;;;;;22.37;61.74;100843.19;5081055;28;20449;-77
2023/08/06 09:17:49;;;;;;;2.25;0.70;;;;;;;22.39;61.17;100834.72;5098457;28;20038;-77
2023/08/06 09:20:16;;;;;;;1.80;0.80;;;;;;;22.73;61.42;100838.44;5116153;28;20099;-77
2023/08/06 09:22:41;;;;;;;4.93;0.90;;;;;;;22.93;61.18;100834.00;5098628;28;20032;-77
2023/08/06 09:25:11;;;;;;;3.03;1.00;;;;;;;22.57;61.75;100831.34;5099700;28;20043;-77
2023/08/06 09:27:37;;;;;;;2.05;1.00;;;;;;;22.49;61.06;100820.97;5097836;28;20023;-77
2023/08/06 09:30:04;;;;;;;2.55;0.95;;;;;;;22.46;61.25;100827.00;5098662;28;20028;-77
2023/08/06 09:32:47;;;;;;;2.53;1.02;;;;;;;22.35;62.90;100822.63;5113380;28;20036;-77
2023/08/06 09:35:17;;;;;;;4.00;1.05;;;;;;;22.54;64.90;100825.59;5117661;28;20035;-77
2023/08/06 09:37:42;;;;;;;1.70;1.00;;;;;;;22.40;64.67;100815.22;5098841;28;20032;-77
2023/08/06 09:40:28;;;;;;;2.45;0.82;;;;;;;22.22;65.14;100832.28;5098838;28;20040;-77
2023/08/06 09:42:54;;;;;;;3.58;1.10;;;;;;;22.35;65.11;100825.38;5099263;28;20054;-77
2023/08/06 09:45:21;;;;;;;5.38;0.90;;;;;;;21.75;65.36;100795.81;5101494;28;20119;-77
2023/08/06 09:47:47;;;;;;;3.83;1.13;;;;;;;21.93;64.97;100826.50;5101292;28;20556;-77
2023/08/06 09:50:20;;;;;;;2.95;0.90;;;;;;;22.00;65.22;100818.81;5100337;28;20043;-76
2023/08/06 09:52:47;;;;;;;4.22;1.02;;;;;;;21.56;65.48;100759.94;5116737;28;20040;-77
2023/08/06 09:55:13;;;;;;;1.58;0.90;;;;;;;22.26;64.46;100828.69;5101211;28;20028;-77
2023/08/06 09:57:43;;;;;;;2.80;0.95;;;;;;;22.30;64.29;100812.50;5099533;28;20054;-78
2023/08/06 10:00:12;;;;;;;4.15;1.00;;;;;;;22.14;63.72;100805.38;5099614;28;20032;-77
2023/08/06 10:02:39;;;;;;;3.90;1.05;;;;;;;22.17;63.19;100808.41;5099625;28;20746;-77
2023/08/06 10:05:05;;;;;;;5.38;1.00;;;;;;;22.07;62.40;100797.44;5100000;28;20036;-77
2023/08/06 10:07:30;;;;;;;4.90;1.13;;;;;;;22.40;61.99;100806.19;5100472;28;20081;-77
2023/08/06 10:09:56;;;;;;;3.00;1.10;;;;;;;22.24;61.56;100817.16;5098495;28;20031;-76
2023/08/06 10:12:24;;;;;;;2.95;1.00;;;;;;;22.31;61.44;100800.44;5081324;28;20094;-77
2023/08/06 10:14:51;;;;;;;2.88;0.98;;;;;;;22.22;61.70;100800.19;5098260;28;20036;-77
2023/08/06 10:17:16;;;;;;;3.83;1.10;;;;;;;22.23;61.10;100804.56;5096679;28;20194;-77
2023/08/06 10:19:42;;;;;;;1.80;1.05;;;;;;;22.31;61.32;100814.13;5097856;28;20498;-77
2023/08/06 10:22:12;;;;;;;5.20;1.10;;;;;;;22.45;61.60;100793.28;5114071;28;20036;-77
2023/08/06 10:24:58;;;;;;;2.50;1.10;;;;;;;22.51;58.93;100775.69;5098309;28;20035;-77
2023/08/06 10:27:32;;;;;;;2.17;0.90;;;;;;;22.75;59.88;100800.59;5097688;28;20034;-77
2023/08/06 10:30:28;;;;;;;2.70;1.23;;;;;;;22.62;61.13;100794.88;5080432;28;20039;-77
2023/08/06 10:32:57;;;;;;;4.40;1.20;;;;;;;22.57;61.09;100789.41;5101508;28;20059;-77
2023/08/06 10:35:31;;;;;;;4.07;1.20;;;;;;;22.75;61.24;100786.06;5115405;28;20035;-77
2023/08/06 10:38:05;;;;;;;2.20;0.90;;;;;;;22.58;60.76;100785.56;5098775;28;20116;-76
2023/08/06 10:40:31;;;;;;;3.60;1.10;;;;;;;22.24;61.46;100788.94;5099880;28;20103;-77
2023/08/06 10:43:00;;;;;;;3.50;1.10;;;;;;;22.01;60.70;100749.22;5099523;28;20043;-77
2023/08/06 10:45:28;;;;;;;3.22;1.13;;;;;;;22.20;61.04;100766.75;5095930;28;20100;-77
2023/08/06 10:47:56;;;;;;;3.42;1.20;;;;;;;22.37;59.88;100760.94;5113933;28;20024;-77
2023/08/06 10:50:21;;;;;;;3.25;1.10;;;;;;;22.40;59.68;100756.84;5080252;28;20140;-77
2023/08/06 10:52:47;;;;;;;3.03;1.08;;;;;;;22.37;60.28;100758.19;5097914;28;20051;-77
2023/08/06 10:55:14;;;;;;;3.13;1.13;;;;;;;22.55;60.41;100780.63;5097809;28;20032;-77
2023/08/06 10:57:40;;;;;;;4.15;1.10;;;;;;;22.29;60.17;100758.78;5115547;28;20028;-77
2023/08/06 11:00:08;;;;;;;6.15;1.20;;;;;;;22.30;60.83;100774.13;5098067;28;20039;-77
2023/08/06 11:02:35;;;;;;;3.40;1.15;;;;;;;22.54;60.79;100779.00;5115350;28;20164;-77
2023/08/06 11:05:10;;;;;;;3.05;1.05;;;;;;;22.63;60.55;100772.66;5098954;28;20046;-77
2023/08/06 11:07:36;;;;;;;1.70;1.10;;;;;;;22.62;59.83;100775.69;5098306;28;20028;-76
2023/08/06 11:10:03;;;;;;;3.97;1.20;;;;;;;22.70;59.61;100755.88;5099324;28;20498;-77
2023/08/06 11:12:29;;;;;;;2.65;1.05;;;;;;;22.55;59.68;100773.25;5099104;28;20047;-77
2023/08/06 11:14:55;;;;;;;3.30;0.98;;;;;;;22.75;60.51;100784.13;5081211;28;20095;-77
2023/08/06 11:17:21;;;;;;;3.58;1.00;;;;;;;22.65;59.86;100777.84;5114505;28;20102;-77